createdAt,value
2019-05-22T00:00:01.608Z,0.00
2019-05-22T00:01:01.636Z,0.00
2019-05-22T00:02:01.669Z,0.00
2019-05-22T00:03:01.701Z,0.00
2019-05-22T00:04:01.737Z,0.00
2019-05-22T00:05:01.805Z,0.00
2019-05-22T00:06:01.806Z,0.00
2019-05-22T00:07:01.843Z,0.00
2019-05-22T00:08:01.873Z,0.00
2019-05-22T00:09:01.912Z,0.00
2019-05-22T00:10:01.946Z,0.00
2019-05-22T00:11:02.046Z,0.00
2019-05-22T00:12:02.012Z,0.00
2019-05-22T00:13:02.049Z,0.00
2019-05-22T00:14:02.080Z,0.00
2019-05-22T00:15:02.959Z,0.00
2019-05-22T00:16:02.153Z,0.00
2019-05-22T00:17:02.182Z,0.00
2019-05-22T00:18:02.212Z,0.00
2019-05-22T00:19:02.247Z,0.00
2019-05-22T00:20:02.281Z,0.00
2019-05-22T00:21:02.340Z,0.00
2019-05-22T00:22:02.354Z,0.00
2019-05-22T00:23:02.407Z,0.00
2019-05-22T00:24:02.422Z,0.00
2019-05-22T00:25:02.453Z,0.00
2019-05-22T00:26:02.513Z,0.00
2019-05-22T00:27:02.520Z,0.00
2019-05-22T00:28:02.555Z,0.00
2019-05-22T00:29:02.607Z,0.00
2019-05-22T00:30:02.622Z,0.00
2019-05-22T00:31:02.659Z,0.00
2019-05-22T00:32:02.690Z,0.00
2019-05-22T00:33:02.725Z,0.00
2019-05-22T00:34:02.761Z,0.00
2019-05-22T00:35:02.793Z,0.00
2019-05-22T00:36:02.827Z,0.00
2019-05-22T00:37:02.862Z,0.00
2019-05-22T00:38:02.969Z,0.00
2019-05-22T00:39:02.931Z,0.00
2019-05-22T00:40:02.969Z,0.00
2019-05-22T00:41:03.001Z,0.00
2019-05-22T00:42:03.035Z,0.00
2019-05-22T00:43:09.181Z,0.00
2019-05-22T00:44:03.160Z,0.00
2019-05-22T00:45:03.137Z,0.00
2019-05-22T00:46:03.173Z,0.00
2019-05-22T00:47:03.201Z,0.00
2019-05-22T00:48:03.243Z,0.00
2019-05-22T00:49:03.265Z,0.00
2019-05-22T00:50:03.304Z,0.00
2019-05-22T00:51:03.340Z,0.00
2019-05-22T00:52:03.371Z,0.00
2019-05-22T00:53:03.403Z,0.00
2019-05-22T00:54:03.440Z,0.00
2019-05-22T00:55:03.471Z,0.00
2019-05-22T00:56:03.512Z,0.00
2019-05-22T00:57:03.544Z,0.00
2019-05-22T00:58:03.576Z,0.00
2019-05-22T00:59:03.609Z,0.00
2019-05-22T01:00:03.643Z,0.00
2019-05-22T01:01:03.681Z,0.00
2019-05-22T01:02:03.712Z,0.00
2019-05-22T01:03:03.742Z,0.00
2019-05-22T01:04:03.777Z,0.00
2019-05-22T01:05:03.809Z,0.00
2019-05-22T01:06:03.856Z,0.00
2019-05-22T01:07:03.877Z,0.00
2019-05-22T01:08:03.921Z,0.00
2019-05-22T01:09:03.947Z,0.00
2019-05-22T01:10:04.744Z,0.00
2019-05-22T01:11:04.013Z,0.00
2019-05-22T01:12:04.092Z,0.00
2019-05-22T01:13:04.079Z,0.00
2019-05-22T01:14:04.114Z,0.00
2019-05-22T01:15:04.458Z,0.00
2019-05-22T01:16:04.182Z,0.00
2019-05-22T01:17:04.228Z,0.00
2019-05-22T01:18:04.247Z,0.00
2019-05-22T01:19:04.281Z,0.00
2019-05-22T01:20:04.316Z,0.00
2019-05-22T01:21:04.348Z,0.00
2019-05-22T01:22:04.384Z,0.00
2019-05-22T01:23:04.415Z,0.00
2019-05-22T01:24:04.451Z,0.00
2019-05-22T01:25:04.483Z,0.00
2019-05-22T01:26:04.531Z,0.00
2019-05-22T01:27:04.570Z,0.00
2019-05-22T01:28:04.588Z,0.00
2019-05-22T01:29:04.625Z,0.00
2019-05-22T01:30:04.653Z,0.00
2019-05-22T01:31:04.686Z,0.00
2019-05-22T01:32:04.721Z,0.00
2019-05-22T01:33:04.752Z,0.00
2019-05-22T01:34:04.786Z,0.00
2019-05-22T01:35:04.819Z,0.00
2019-05-22T01:36:04.854Z,0.00
2019-05-22T01:37:04.887Z,0.00
2019-05-22T01:38:04.923Z,0.00
2019-05-22T01:39:04.957Z,0.00
2019-05-22T01:40:04.990Z,0.00
2019-05-22T01:41:05.021Z,5.63
2019-05-22T01:42:05.053Z,5.63
2019-05-22T01:43:05.092Z,5.63
2019-05-22T01:44:05.124Z,5.63
2019-05-22T01:45:06.705Z,5.63
2019-05-22T01:46:05.188Z,5.63
2019-05-22T01:47:05.222Z,5.63
2019-05-22T01:48:05.257Z,5.63
2019-05-22T01:49:05.290Z,5.63
2019-05-22T01:50:05.331Z,5.63
2019-05-22T01:51:05.361Z,11.25
2019-05-22T01:52:05.391Z,11.25
2019-05-22T01:53:05.423Z,11.25
2019-05-22T01:54:05.459Z,11.25
2019-05-22T01:55:05.495Z,11.25
2019-05-22T01:56:05.531Z,11.25
2019-05-22T01:57:05.561Z,11.25
2019-05-22T01:58:05.592Z,16.88
2019-05-22T01:59:05.626Z,16.88
2019-05-22T02:00:05.665Z,16.88
2019-05-22T02:01:05.694Z,16.88
2019-05-22T02:02:05.732Z,16.88
2019-05-22T02:03:05.769Z,22.50
2019-05-22T02:04:05.797Z,22.50
2019-05-22T02:05:05.827Z,22.50
2019-05-22T02:06:05.864Z,22.50
2019-05-22T02:07:05.893Z,22.50
2019-05-22T02:08:05.927Z,28.13
2019-05-22T02:09:05.966Z,28.13
2019-05-22T02:10:05.998Z,28.13
2019-05-22T02:11:06.030Z,33.75
2019-05-22T02:12:06.063Z,33.75
2019-05-22T02:13:06.095Z,33.75
2019-05-22T02:14:06.131Z,39.38
2019-05-22T02:15:06.162Z,39.38
2019-05-22T02:16:06.198Z,39.38
2019-05-22T02:17:06.230Z,45.00
2019-05-22T02:18:06.267Z,45.00
2019-05-22T02:19:06.321Z,45.00
2019-05-22T02:20:06.836Z,50.63
2019-05-22T02:21:06.366Z,50.63
2019-05-22T02:22:06.397Z,50.63
2019-05-22T02:23:06.433Z,50.63
2019-05-22T02:24:06.476Z,50.63
2019-05-22T02:25:06.500Z,50.63
2019-05-22T02:26:06.537Z,56.25
2019-05-22T02:27:06.568Z,56.25
2019-05-22T02:28:06.601Z,61.88
2019-05-22T02:29:06.637Z,61.88
2019-05-22T02:30:06.669Z,61.88
2019-05-22T02:31:06.701Z,67.50
2019-05-22T02:32:06.738Z,67.50
2019-05-22T02:33:06.806Z,67.50
2019-05-22T02:34:06.818Z,73.13
2019-05-22T02:35:06.840Z,73.13
2019-05-22T02:36:06.871Z,78.75
2019-05-22T02:37:06.903Z,78.75
2019-05-22T02:38:06.939Z,78.75
2019-05-22T02:39:06.979Z,84.38
2019-05-22T02:40:07.008Z,84.38
2019-05-22T02:41:07.039Z,84.38
2019-05-22T02:42:07.072Z,90.00
2019-05-22T02:43:07.111Z,90.00
2019-05-22T02:44:07.146Z,90.00
2019-05-22T02:45:07.177Z,95.63
2019-05-22T02:46:07.208Z,95.63
2019-05-22T02:47:18.982Z,101.25
2019-05-22T02:48:07.277Z,101.25
2019-05-22T02:49:07.314Z,101.25
2019-05-22T02:50:07.346Z,106.88
2019-05-22T02:51:07.379Z,106.88
2019-05-22T02:52:07.416Z,106.88
2019-05-22T02:53:07.447Z,106.88
2019-05-22T02:54:07.481Z,112.50
2019-05-22T02:55:07.516Z,112.50
2019-05-22T02:56:07.556Z,112.50
2019-05-22T02:57:07.585Z,112.50
2019-05-22T02:58:07.618Z,112.50
2019-05-22T02:59:07.650Z,118.13
2019-05-22T03:00:07.685Z,118.13
2019-05-22T03:01:07.719Z,123.75
2019-05-22T03:02:07.764Z,123.75
2019-05-22T03:03:07.788Z,123.75
2019-05-22T03:04:07.824Z,123.75
2019-05-22T03:05:07.855Z,129.38
2019-05-22T03:06:07.892Z,129.38
2019-05-22T03:07:07.927Z,129.38
2019-05-22T03:08:07.961Z,135.00
2019-05-22T03:09:08.115Z,135.00
2019-05-22T03:10:08.079Z,140.63
2019-05-22T03:11:08.068Z,140.63
2019-05-22T03:12:08.101Z,140.63
2019-05-22T03:13:08.154Z,146.25
2019-05-22T03:14:08.174Z,146.25
2019-05-22T03:15:08.202Z,151.88
2019-05-22T03:16:08.240Z,151.88
2019-05-22T03:17:08.277Z,157.50
2019-05-22T03:18:08.316Z,157.50
2019-05-22T03:19:09.401Z,157.50
2019-05-22T03:20:08.378Z,157.50
2019-05-22T03:21:08.412Z,163.13
2019-05-22T03:22:08.496Z,163.13
2019-05-22T03:23:08.479Z,163.13
2019-05-22T03:24:08.518Z,168.75
2019-05-22T03:25:08.561Z,168.75
2019-05-22T03:26:08.590Z,174.38
2019-05-22T03:27:08.621Z,174.38
2019-05-22T03:28:08.656Z,180.00
2019-05-22T03:29:08.690Z,180.00
2019-05-22T03:30:08.726Z,185.63
2019-05-22T03:31:08.762Z,191.25
2019-05-22T03:32:08.801Z,191.25
2019-05-22T03:33:08.830Z,196.88
2019-05-22T03:34:08.868Z,202.50
2019-05-22T03:35:08.923Z,202.50
2019-05-22T03:36:08.940Z,208.13
2019-05-22T03:37:08.970Z,208.13
2019-05-22T03:38:09.010Z,219.38
2019-05-22T03:39:09.047Z,219.38
2019-05-22T03:40:09.082Z,219.38
2019-05-22T03:41:09.112Z,219.38
2019-05-22T03:42:09.149Z,230.63
2019-05-22T03:43:09.185Z,230.63
2019-05-22T03:44:09.221Z,230.63
2019-05-22T03:45:09.259Z,241.88
2019-05-22T03:46:09.294Z,247.50
2019-05-22T03:47:09.328Z,241.88
2019-05-22T03:48:09.366Z,247.50
2019-05-22T03:49:26.094Z,241.88
2019-05-22T03:50:09.461Z,241.88
2019-05-22T03:51:09.497Z,241.88
2019-05-22T03:52:09.507Z,241.88
2019-05-22T03:53:09.543Z,247.50
2019-05-22T03:54:09.578Z,247.50
2019-05-22T03:55:09.618Z,247.50
2019-05-22T03:56:09.658Z,253.13
2019-05-22T03:57:09.694Z,253.13
2019-05-22T03:58:09.723Z,253.13
2019-05-22T03:59:09.761Z,258.75
2019-05-22T04:00:09.796Z,264.38
2019-05-22T04:01:09.868Z,270.00
2019-05-22T04:02:09.869Z,275.63
2019-05-22T04:03:09.915Z,281.25
2019-05-22T04:04:09.973Z,281.25
2019-05-22T04:05:09.982Z,286.88
2019-05-22T04:06:10.050Z,292.50
2019-05-22T04:07:10.052Z,309.38
2019-05-22T04:08:10.090Z,331.88
2019-05-22T04:09:10.127Z,326.25
2019-05-22T04:10:10.166Z,303.75
2019-05-22T04:11:10.200Z,315.00
2019-05-22T04:12:10.243Z,309.38
2019-05-22T04:13:10.282Z,309.38
2019-05-22T04:14:10.314Z,315.00
2019-05-22T04:15:10.349Z,315.00
2019-05-22T04:16:10.389Z,315.00
2019-05-22T04:17:10.443Z,320.63
2019-05-22T04:18:10.462Z,320.63
2019-05-22T04:19:10.508Z,320.63
2019-05-22T04:20:10.544Z,320.63
2019-05-22T04:21:10.582Z,326.25
2019-05-22T04:22:10.615Z,331.88
2019-05-22T04:23:10.653Z,331.88
2019-05-22T04:24:10.684Z,337.50
2019-05-22T04:25:10.723Z,343.13
2019-05-22T04:26:10.761Z,348.75
2019-05-22T04:27:10.803Z,348.75
2019-05-22T04:28:10.839Z,388.13
2019-05-22T04:29:10.877Z,461.25
2019-05-22T04:30:10.918Z,551.25
2019-05-22T04:31:10.963Z,618.75
2019-05-22T04:32:10.993Z,680.63
2019-05-22T04:33:11.027Z,708.75
2019-05-22T04:34:11.066Z,703.13
2019-05-22T04:35:11.114Z,708.75
2019-05-22T04:36:11.147Z,725.63
2019-05-22T04:37:11.182Z,731.25
2019-05-22T04:38:11.225Z,736.88
2019-05-22T04:39:11.260Z,736.88
2019-05-22T04:40:11.300Z,731.25
2019-05-22T04:41:11.338Z,736.88
2019-05-22T04:42:11.380Z,748.13
2019-05-22T04:43:11.417Z,770.63
2019-05-22T04:44:11.457Z,798.75
2019-05-22T04:45:11.498Z,793.13
2019-05-22T04:46:11.544Z,798.75
2019-05-22T04:47:11.579Z,793.13
2019-05-22T04:48:11.619Z,787.50
2019-05-22T04:49:11.661Z,804.38
2019-05-22T04:50:11.705Z,815.63
2019-05-22T04:51:11.746Z,838.13
2019-05-22T04:52:11.784Z,832.50
2019-05-22T04:53:11.823Z,798.75
2019-05-22T04:54:11.867Z,821.25
2019-05-22T04:55:11.920Z,855.00
2019-05-22T04:56:11.955Z,860.63
2019-05-22T04:57:11.992Z,871.88
2019-05-22T04:58:12.034Z,877.50
2019-05-22T04:59:12.085Z,883.13
2019-05-22T05:00:12.123Z,916.88
2019-05-22T05:01:12.172Z,939.38
2019-05-22T05:02:12.209Z,939.38
2019-05-22T05:03:12.253Z,939.38
2019-05-22T05:04:12.298Z,933.75
2019-05-22T05:05:12.342Z,928.13
2019-05-22T05:06:12.389Z,933.75
2019-05-22T05:07:12.426Z,961.88
2019-05-22T05:08:12.469Z,961.88
2019-05-22T05:09:12.515Z,945.00
2019-05-22T05:10:12.559Z,933.75
2019-05-22T05:11:12.604Z,939.38
2019-05-22T05:12:12.654Z,956.25
2019-05-22T05:13:12.695Z,956.25
2019-05-22T05:14:12.742Z,961.88
2019-05-22T05:15:12.783Z,990.00
2019-05-22T05:16:12.831Z,1001.25
2019-05-22T05:17:12.872Z,984.38
2019-05-22T05:18:12.923Z,1006.88
2019-05-22T05:19:12.975Z,1006.88
2019-05-22T05:20:22.145Z,1018.13
2019-05-22T05:21:13.054Z,1006.88
2019-05-22T05:22:13.103Z,1023.75
2019-05-22T05:23:13.151Z,1068.75
2019-05-22T05:24:13.200Z,1080.00
2019-05-22T05:25:13.247Z,1102.50
2019-05-22T05:26:13.290Z,1125.00
2019-05-22T05:27:13.334Z,1130.63
2019-05-22T05:28:13.381Z,1136.25
2019-05-22T05:29:13.427Z,1136.25
2019-05-22T05:30:13.474Z,1164.38
2019-05-22T05:31:13.522Z,1181.25
2019-05-22T05:32:13.568Z,1158.75
2019-05-22T05:33:13.619Z,1119.38
2019-05-22T05:34:13.662Z,1113.75
2019-05-22T05:35:13.709Z,1170.00
2019-05-22T05:36:13.760Z,1181.25
2019-05-22T05:37:13.856Z,1192.50
2019-05-22T05:38:13.856Z,1170.00
2019-05-22T05:39:13.902Z,1147.50
2019-05-22T05:40:13.950Z,1158.75
2019-05-22T05:41:13.994Z,1192.50
2019-05-22T05:42:14.046Z,1203.75
2019-05-22T05:43:14.090Z,1181.25
2019-05-22T05:44:14.140Z,1203.75
2019-05-22T05:45:14.193Z,1237.50
2019-05-22T05:46:14.241Z,1276.88
2019-05-22T05:47:14.287Z,1293.75
2019-05-22T05:48:14.331Z,1276.88
2019-05-22T05:49:14.379Z,1243.13
2019-05-22T05:50:14.429Z,1226.25
2019-05-22T05:51:14.480Z,1260.00
2019-05-22T05:52:14.529Z,1243.13
2019-05-22T05:53:14.602Z,1119.38
2019-05-22T05:54:14.628Z,697.50
2019-05-22T05:55:14.674Z,697.50
2019-05-22T05:56:14.724Z,866.25
2019-05-22T05:57:14.771Z,933.75
2019-05-22T05:58:14.821Z,900.00
2019-05-22T05:59:14.881Z,871.88
2019-05-22T06:00:14.920Z,810.00
2019-05-22T06:01:15.031Z,815.63
2019-05-22T06:02:15.019Z,821.25
2019-05-22T06:03:15.072Z,877.50
2019-05-22T06:04:15.119Z,860.63
2019-05-22T06:05:15.164Z,781.88
2019-05-22T06:06:15.213Z,776.25
2019-05-22T06:07:15.264Z,742.50
2019-05-22T06:08:15.317Z,832.50
2019-05-22T06:09:15.360Z,855.00
2019-05-22T06:10:15.417Z,888.75
2019-05-22T06:11:15.460Z,781.88
2019-05-22T06:12:15.525Z,765.00
2019-05-22T06:13:15.554Z,793.13
2019-05-22T06:14:15.600Z,866.25
2019-05-22T06:15:15.651Z,911.25
2019-05-22T06:16:15.697Z,945.00
2019-05-22T06:17:15.772Z,928.13
2019-05-22T06:18:15.799Z,939.38
2019-05-22T06:19:15.841Z,956.25
2019-05-22T06:20:15.887Z,995.63
2019-05-22T06:21:15.938Z,1080.00
2019-05-22T06:22:15.980Z,1046.25
2019-05-22T06:23:16.028Z,1046.25
2019-05-22T06:24:16.076Z,1040.63
2019-05-22T06:25:16.123Z,1141.88
2019-05-22T06:26:16.173Z,1231.88
2019-05-22T06:27:16.219Z,1575.00
2019-05-22T06:28:16.263Z,1732.50
2019-05-22T06:29:16.312Z,1760.63
2019-05-22T06:30:16.354Z,1788.75
2019-05-22T06:31:16.402Z,1693.13
2019-05-22T06:32:16.454Z,1631.25
2019-05-22T06:33:16.497Z,1625.63
2019-05-22T06:34:16.542Z,1625.63
2019-05-22T06:35:16.597Z,1563.75
2019-05-22T06:36:16.649Z,1670.63
2019-05-22T06:37:16.682Z,1631.25
2019-05-22T06:38:16.730Z,1670.63
2019-05-22T06:39:16.779Z,1771.88
2019-05-22T06:40:16.823Z,1777.50
2019-05-22T06:41:16.870Z,1935.00
2019-05-22T06:42:16.951Z,1878.75
2019-05-22T06:43:16.966Z,1845.00
2019-05-22T06:44:17.118Z,1833.75
2019-05-22T06:45:17.065Z,1839.38
2019-05-22T06:46:17.111Z,1783.13
2019-05-22T06:47:17.161Z,1771.88
2019-05-22T06:48:17.206Z,1687.50
2019-05-22T06:49:17.263Z,1676.25
2019-05-22T06:50:17.307Z,1749.38
2019-05-22T06:51:19.693Z,1693.13
2019-05-22T06:52:17.400Z,1659.38
2019-05-22T06:53:17.452Z,1732.50
2019-05-22T06:54:17.504Z,1681.88
2019-05-22T06:55:17.550Z,1580.63
2019-05-22T06:56:17.600Z,1586.25
2019-05-22T06:57:17.648Z,1659.38
2019-05-22T06:58:17.697Z,1726.88
2019-05-22T06:59:17.748Z,1676.25
2019-05-22T07:00:17.794Z,1636.88
2019-05-22T07:01:17.842Z,1631.25
2019-05-22T07:02:17.891Z,1608.75
2019-05-22T07:03:17.940Z,1715.63
2019-05-22T07:04:17.989Z,1760.63
2019-05-22T07:05:18.046Z,1721.25
2019-05-22T07:06:18.098Z,1777.50
2019-05-22T07:07:18.140Z,1755.00
2019-05-22T07:08:18.246Z,1749.38
2019-05-22T07:09:18.238Z,1743.75
2019-05-22T07:10:18.289Z,1760.63
2019-05-22T07:11:18.338Z,1749.38
2019-05-22T07:12:18.416Z,1670.63
2019-05-22T07:13:18.435Z,1704.38
2019-05-22T07:14:18.492Z,1800.00
2019-05-22T07:15:18.538Z,1805.63
2019-05-22T07:16:18.585Z,1771.88
2019-05-22T07:17:18.637Z,1715.63
2019-05-22T07:18:18.687Z,1755.00
2019-05-22T07:19:18.741Z,1845.00
2019-05-22T07:20:18.793Z,1783.13
2019-05-22T07:21:31.967Z,1805.63
2019-05-22T07:22:18.917Z,1951.88
2019-05-22T07:23:18.953Z,1884.38
2019-05-22T07:24:18.984Z,1749.38
2019-05-22T07:25:19.037Z,1783.13
2019-05-22T07:26:19.083Z,1833.75
2019-05-22T07:27:19.131Z,1890.00
2019-05-22T07:28:19.182Z,1912.50
2019-05-22T07:29:19.243Z,1861.88
2019-05-22T07:30:19.283Z,1833.75
2019-05-22T07:31:19.332Z,1845.00
2019-05-22T07:32:19.387Z,1878.75
2019-05-22T07:33:19.430Z,1873.13
2019-05-22T07:34:19.480Z,1867.50
2019-05-22T07:35:19.528Z,1884.38
2019-05-22T07:36:19.578Z,2193.75
2019-05-22T07:37:19.625Z,2205.00
2019-05-22T07:38:19.675Z,1951.88
2019-05-22T07:39:19.729Z,2070.00
2019-05-22T07:40:19.790Z,1783.13
2019-05-22T07:41:19.824Z,2109.38
2019-05-22T07:42:19.875Z,1395.00
2019-05-22T07:43:19.922Z,2160.00
2019-05-22T07:44:19.976Z,2390.63
2019-05-22T07:45:20.030Z,2458.13
2019-05-22T07:46:20.069Z,2385.00
2019-05-22T07:47:20.123Z,2396.25
2019-05-22T07:48:20.208Z,2435.63
2019-05-22T07:49:20.219Z,2289.38
2019-05-22T07:50:20.268Z,2266.88
2019-05-22T07:51:20.314Z,2176.88
2019-05-22T07:52:20.364Z,2013.75
2019-05-22T07:53:20.413Z,2233.13
2019-05-22T07:54:20.465Z,2210.63
2019-05-22T07:55:20.628Z,2250.00
2019-05-22T07:56:20.567Z,2356.88
2019-05-22T07:57:20.613Z,2328.75
2019-05-22T07:58:20.669Z,2261.25
2019-05-22T07:59:20.717Z,2300.63
2019-05-22T08:00:20.782Z,2368.13
2019-05-22T08:01:20.815Z,2351.25
2019-05-22T08:02:20.866Z,2379.38
2019-05-22T08:03:20.923Z,2396.25
2019-05-22T08:04:20.985Z,2413.13
2019-05-22T08:05:21.023Z,2418.75
2019-05-22T08:06:21.072Z,2441.25
2019-05-22T08:07:21.120Z,2430.00
2019-05-22T08:08:21.174Z,2266.88
2019-05-22T08:09:21.234Z,2176.88
2019-05-22T08:10:21.278Z,2244.38
2019-05-22T08:11:21.340Z,2086.88
2019-05-22T08:12:21.386Z,2137.50
2019-05-22T08:13:21.435Z,2328.75
2019-05-22T08:14:21.555Z,2216.25
2019-05-22T08:15:21.541Z,2058.75
2019-05-22T08:16:21.597Z,2137.50
2019-05-22T08:17:21.648Z,2182.50
2019-05-22T08:18:21.698Z,2311.88
2019-05-22T08:19:21.754Z,2227.50
2019-05-22T08:20:21.805Z,2126.25
2019-05-22T08:21:23.544Z,2266.88
2019-05-22T08:22:21.937Z,2362.50
2019-05-22T08:23:21.966Z,2109.38
2019-05-22T08:24:22.021Z,1884.38
2019-05-22T08:25:22.074Z,1963.13
2019-05-22T08:26:22.141Z,1991.25
2019-05-22T08:27:22.180Z,1963.13
2019-05-22T08:28:22.238Z,1923.75
2019-05-22T08:29:22.286Z,1833.75
2019-05-22T08:30:22.344Z,1946.25
2019-05-22T08:31:22.401Z,1946.25
2019-05-22T08:32:22.459Z,1901.25
2019-05-22T08:33:22.512Z,2036.25
2019-05-22T08:34:22.562Z,2199.38
2019-05-22T08:35:22.615Z,2115.00
2019-05-22T08:36:22.672Z,2047.50
2019-05-22T08:37:22.727Z,2210.63
2019-05-22T08:38:22.789Z,2379.38
2019-05-22T08:39:22.833Z,2103.75
2019-05-22T08:40:22.887Z,1760.63
2019-05-22T08:41:22.944Z,1957.50
2019-05-22T08:42:22.998Z,2306.25
2019-05-22T08:43:23.056Z,2407.50
2019-05-22T08:44:23.109Z,1957.50
2019-05-22T08:45:23.166Z,1456.88
2019-05-22T08:46:23.217Z,1254.38
2019-05-22T08:47:23.275Z,1220.63
2019-05-22T08:48:23.329Z,1288.13
2019-05-22T08:49:23.382Z,1344.38
2019-05-22T08:50:23.437Z,1316.25
2019-05-22T08:51:23.510Z,1321.88
2019-05-22T08:52:24.515Z,1383.75
2019-05-22T08:53:23.602Z,1395.00
2019-05-22T08:54:23.659Z,1423.13
2019-05-22T08:55:23.714Z,1400.63
2019-05-22T08:56:23.768Z,1479.38
2019-05-22T08:57:23.825Z,1636.88
2019-05-22T08:58:23.876Z,1738.13
2019-05-22T08:59:23.936Z,1749.38
2019-05-22T09:00:23.989Z,1704.38
2019-05-22T09:04:08.583Z,1710.00
2019-05-22T09:04:09.748Z,1687.50
2019-05-22T09:05:09.808Z,1698.75
2019-05-22T09:06:09.866Z,1822.50
2019-05-22T09:07:09.927Z,1906.88
2019-05-22T09:08:09.984Z,1980.00
2019-05-22T09:09:10.040Z,1918.13
2019-05-22T09:10:10.083Z,1968.75
2019-05-22T09:11:10.163Z,1923.75
2019-05-22T09:12:10.200Z,1929.38
2019-05-22T09:13:10.260Z,1996.88
2019-05-22T09:14:10.330Z,2025.00
2019-05-22T09:15:10.366Z,2058.75
2019-05-22T09:16:10.424Z,2143.13
2019-05-22T09:17:10.491Z,2081.25
2019-05-22T09:18:10.530Z,2047.50
2019-05-22T09:19:10.656Z,1957.50
2019-05-22T09:20:10.930Z,2036.25
2019-05-22T09:21:10.695Z,2008.13
2019-05-22T09:22:10.810Z,2058.75
2019-05-22T09:23:10.819Z,2030.63
2019-05-22T09:24:10.878Z,2115.00
2019-05-22T09:25:10.944Z,2143.13
2019-05-22T09:26:10.989Z,2188.13
2019-05-22T09:27:11.036Z,2154.38
2019-05-22T09:28:11.110Z,2098.13
2019-05-22T09:29:11.164Z,2013.75
2019-05-22T09:30:11.212Z,2041.88
2019-05-22T09:31:11.260Z,2064.38
2019-05-22T09:32:11.323Z,2148.75
2019-05-22T09:33:11.374Z,2120.63
2019-05-22T09:34:11.446Z,2154.38
2019-05-22T09:35:11.486Z,2210.63
2019-05-22T09:36:11.555Z,2053.13
2019-05-22T09:37:11.599Z,2098.13
2019-05-22T09:38:11.656Z,2188.13
2019-05-22T09:39:11.715Z,2171.25
2019-05-22T09:40:11.770Z,2115.00
2019-05-22T09:41:11.826Z,2064.38
2019-05-22T09:42:11.883Z,2075.63
2019-05-22T09:43:11.939Z,2025.00
2019-05-22T09:44:15.180Z,1968.75
2019-05-22T09:45:12.055Z,2013.75
2019-05-22T09:46:12.117Z,2053.13
2019-05-22T09:47:12.165Z,1996.88
2019-05-22T09:48:12.221Z,2058.75
2019-05-22T09:49:12.284Z,2047.50
2019-05-22T09:50:12.332Z,1974.38
2019-05-22T09:51:12.389Z,1951.88
2019-05-22T09:52:12.445Z,2081.25
2019-05-22T09:53:12.500Z,2205.00
2019-05-22T09:54:12.558Z,2103.75
2019-05-22T09:55:12.616Z,2058.75
2019-05-22T09:56:12.683Z,2086.88
2019-05-22T09:57:12.723Z,2008.13
2019-05-22T09:58:12.779Z,2041.88
2019-05-22T09:59:12.843Z,2086.88
2019-05-22T10:00:12.892Z,2126.25
2019-05-22T10:01:12.945Z,2154.38
2019-05-22T10:02:13.001Z,1996.88
2019-05-22T10:03:13.063Z,2008.13
2019-05-22T10:04:13.117Z,2171.25
2019-05-22T10:05:13.166Z,2176.88
2019-05-22T10:06:13.234Z,2205.00
2019-05-22T10:07:13.276Z,2233.13
2019-05-22T10:08:13.331Z,1985.63
2019-05-22T10:09:13.388Z,1957.50
2019-05-22T10:10:13.443Z,2120.63
2019-05-22T10:11:13.515Z,2171.25
2019-05-22T10:12:13.552Z,2244.38
2019-05-22T10:13:13.643Z,2244.38
2019-05-22T10:14:13.666Z,2137.50
2019-05-22T10:15:13.958Z,2188.13
2019-05-22T10:16:13.789Z,2216.25
2019-05-22T10:17:13.827Z,2193.75
2019-05-22T10:18:13.883Z,2193.75
2019-05-22T10:19:13.940Z,2233.13
2019-05-22T10:20:13.993Z,2238.75
2019-05-22T10:21:14.078Z,2272.50
2019-05-22T10:22:14.104Z,2216.25
2019-05-22T10:23:16.184Z,2064.38
2019-05-22T10:24:14.213Z,2041.88
2019-05-22T10:25:16.636Z,2109.38
2019-05-22T10:26:14.328Z,2165.63
2019-05-22T10:27:14.389Z,2115.00
2019-05-22T10:28:14.440Z,2210.63
2019-05-22T10:29:14.496Z,2115.00
2019-05-22T10:30:14.550Z,2098.13
2019-05-22T10:31:16.891Z,1996.88
2019-05-22T10:32:14.661Z,2098.13
2019-05-22T10:33:14.740Z,2154.38
2019-05-22T10:34:14.769Z,2131.88
2019-05-22T10:35:14.840Z,2154.38
2019-05-22T10:36:14.880Z,2233.13
2019-05-22T10:37:14.933Z,2244.38
2019-05-22T10:38:14.996Z,2143.13
2019-05-22T10:39:15.044Z,2199.38
2019-05-22T10:40:15.100Z,2227.50
2019-05-22T10:41:15.155Z,2148.75
2019-05-22T10:42:15.213Z,2216.25
2019-05-22T10:43:15.347Z,2171.25
2019-05-22T10:44:15.323Z,2070.00
2019-05-22T10:45:15.375Z,2013.75
2019-05-22T10:46:15.467Z,1991.25
2019-05-22T10:47:18.580Z,2109.38
2019-05-22T10:48:15.539Z,2160.00
2019-05-22T10:49:15.593Z,2188.13
2019-05-22T10:50:15.650Z,2334.38
2019-05-22T10:51:15.706Z,2255.63
2019-05-22T10:52:15.758Z,2193.75
2019-05-22T10:53:31.891Z,2255.63
2019-05-22T10:54:15.866Z,2306.25
2019-05-22T10:55:15.924Z,2255.63
2019-05-22T10:56:15.975Z,2171.25
2019-05-22T10:57:16.027Z,2216.25
2019-05-22T10:58:16.114Z,2227.50
2019-05-22T10:59:16.136Z,2278.13
2019-05-22T11:00:16.198Z,2255.63
2019-05-22T11:01:16.245Z,2238.75
2019-05-22T11:02:16.306Z,2205.00
2019-05-22T11:03:16.356Z,2221.88
2019-05-22T11:04:19.253Z,2193.75
2019-05-22T11:05:16.503Z,2171.25
2019-05-22T11:06:16.514Z,2165.63
2019-05-22T11:07:16.569Z,2143.13
2019-05-22T11:08:16.633Z,2148.75
2019-05-22T11:09:16.683Z,2266.88
2019-05-22T11:10:16.735Z,2266.88
2019-05-22T11:11:16.789Z,2205.00
2019-05-22T11:12:16.841Z,2193.75
2019-05-22T11:13:16.896Z,2221.88
2019-05-22T11:14:16.953Z,2210.63
2019-05-22T11:15:17.003Z,2221.88
2019-05-22T11:16:17.057Z,2261.25
2019-05-22T11:17:17.116Z,2171.25
2019-05-22T11:18:17.166Z,2036.25
2019-05-22T11:19:17.222Z,2109.38
2019-05-22T11:20:17.286Z,2160.00
2019-05-22T11:21:17.328Z,2165.63
2019-05-22T11:22:17.393Z,2244.38
2019-05-22T11:23:17.437Z,2188.13
2019-05-22T11:24:17.492Z,2205.00
2019-05-22T11:25:17.549Z,2165.63
2019-05-22T11:26:17.601Z,2182.50
2019-05-22T11:27:17.657Z,2126.25
2019-05-22T11:28:17.748Z,2216.25
2019-05-22T11:29:17.766Z,2188.13
2019-05-22T11:30:17.820Z,2160.00
2019-05-22T11:31:17.879Z,2193.75
2019-05-22T11:32:17.929Z,2193.75
2019-05-22T11:33:17.986Z,2103.75
2019-05-22T11:34:18.040Z,2238.75
2019-05-22T11:35:18.146Z,2064.38
2019-05-22T11:36:18.151Z,2002.50
2019-05-22T11:37:18.201Z,2143.13
2019-05-22T11:38:18.262Z,2171.25
2019-05-22T11:39:18.381Z,2098.13
2019-05-22T11:40:18.373Z,2058.75
2019-05-22T11:41:18.428Z,2131.88
2019-05-22T11:42:18.478Z,2160.00
2019-05-22T11:43:18.531Z,2115.00
2019-05-22T11:44:18.583Z,2120.63
2019-05-22T11:45:18.639Z,2205.00
2019-05-22T11:46:18.696Z,2188.13
2019-05-22T11:47:18.747Z,2182.50
2019-05-22T11:48:18.801Z,2160.00
2019-05-22T11:49:18.861Z,2227.50
2019-05-22T11:50:18.910Z,2216.25
2019-05-22T11:51:18.964Z,2216.25
2019-05-22T11:52:19.042Z,2205.00
2019-05-22T11:53:19.078Z,2210.63
2019-05-22T11:54:19.126Z,2210.63
2019-05-22T11:55:19.188Z,2210.63
2019-05-22T11:56:19.237Z,2171.25
2019-05-22T11:57:19.288Z,2058.75
2019-05-22T11:58:19.349Z,1996.88
2019-05-22T11:59:19.401Z,2115.00
2019-05-22T12:00:19.457Z,2199.38
2019-05-22T12:01:19.507Z,2210.63
2019-05-22T12:02:19.567Z,2148.75
2019-05-22T12:03:19.616Z,2148.75
2019-05-22T12:04:19.670Z,2210.63
2019-05-22T12:05:19.727Z,2176.88
2019-05-22T12:06:19.782Z,2160.00
2019-05-22T12:07:19.836Z,2075.63
2019-05-22T12:08:19.895Z,2064.38
2019-05-22T12:09:19.969Z,2086.88
2019-05-22T12:10:19.998Z,2148.75
2019-05-22T12:11:20.057Z,2053.13
2019-05-22T12:12:20.114Z,2103.75
2019-05-22T12:13:20.167Z,2176.88
2019-05-22T12:14:20.220Z,2041.88
2019-05-22T12:15:20.275Z,2008.13
2019-05-22T12:16:20.331Z,2030.63
2019-05-22T12:17:36.591Z,2025.00
2019-05-22T12:18:20.445Z,1974.38
2019-05-22T12:19:20.501Z,1918.13
2019-05-22T12:20:20.553Z,2030.63
2019-05-22T12:21:20.605Z,1957.50
2019-05-22T12:22:20.662Z,1906.88
2019-05-22T12:23:20.727Z,1777.50
2019-05-22T12:24:28.587Z,1912.50
2019-05-22T12:25:20.829Z,1996.88
2019-05-22T12:26:20.881Z,2047.50